sensor_id;sensor_type;location;lat;lon;timestamp;P1;durP1;ratioP1;P2;durP2;ratioP2
66179;SDS011;52986;44.028;20.466;2023-07-08T00:00:49;9.80;;;4.50;;
66179;SDS011;52986;44.028;20.466;2023-07-08T00:03:14;11.68;;;4.72;;
66179;SDS011;52986;44.028;20.466;2023-07-08T00:05:40;13.90;;;4.78;;
66179;SDS011;52986;44.028;20.466;2023-07-08T00:08:16;11.38;;;4.80;;
66179;SDS011;52986;44.028;20.466;2023-07-08T00:10:43;12.23;;;4.72;;
66179;SDS011;52986;44.028;20.466;2023-07-08T00:13:09;13.45;;;5.10;;
66179;SDS011;52986;44.028;20.466;2023-07-08T00:15:35;12.13;;;4.40;;
66179;SDS011;52986;44.028;20.466;2023-07-08T00:18:05;11.13;;;4.63;;
66179;SDS011;52986;44.028;20.466;2023-07-08T00:20:45;12.40;;;4.75;;
66179;SDS011;52986;44.028;20.466;2023-07-08T00:23:11;11.73;;;4.43;;
66179;SDS011;52986;44.028;20.466;2023-07-08T00:25:36;10.23;;;4.45;;
66179;SDS011;52986;44.028;20.466;2023-07-08T00:28:04;12.20;;;4.50;;
66179;SDS011;52986;44.028;20.466;2023-07-08T00:30:34;10.77;;;4.63;;
66179;SDS011;52986;44.028;20.466;2023-07-08T00:32:59;11.52;;;4.18;;
66179;SDS011;52986;44.028;20.466;2023-07-08T00:37:55;10.50;;;4.28;;
66179;SDS011;52986;44.028;20.466;2023-07-08T00:40:27;12.88;;;4.53;;
66179;SDS011;52986;44.028;20.466;2023-07-08T00:42:58;12.38;;;4.43;;
66179;SDS011;52986;44.028;20.466;2023-07-08T00:45:46;10.50;;;4.50;;
66179;SDS011;52986;44.028;20.466;2023-07-08T00:48:23;9.73;;;4.07;;
66179;SDS011;52986;44.028;20.466;2023-07-08T00:50:50;11.88;;;4.43;;
66179;SDS011;52986;44.028;20.466;2023-07-08T00:53:24;10.00;;;4.40;;
66179;SDS011;52986;44.028;20.466;2023-07-08T00:56:16;13.30;;;4.65;;
66179;SDS011;52986;44.028;20.466;2023-07-08T00:58:43;11.50;;;5.00;;
66179;SDS011;52986;44.028;20.466;2023-07-08T01:01:12;11.50;;;4.70;;
66179;SDS011;52986;44.028;20.466;2023-07-08T01:03:43;11.45;;;4.70;;
66179;SDS011;52986;44.028;20.466;2023-07-08T01:06:14;12.18;;;4.85;;
66179;SDS011;52986;44.028;20.466;2023-07-08T01:08:40;11.30;;;4.28;;
66179;SDS011;52986;44.028;20.466;2023-07-08T01:11:06;11.68;;;4.75;;
66179;SDS011;52986;44.028;20.466;2023-07-08T01:13:32;11.57;;;4.72;;
66179;SDS011;52986;44.028;20.466;2023-07-08T01:16:02;11.98;;;4.22;;
66179;SDS011;52986;44.028;20.466;2023-07-08T01:18:28;12.13;;;4.43;;
66179;SDS011;52986;44.028;20.466;2023-07-08T01:20:53;10.73;;;4.38;;
66179;SDS011;52986;44.028;20.466;2023-07-08T01:23:20;12.30;;;4.63;;
66179;SDS011;52986;44.028;20.466;2023-07-08T01:25:46;11.23;;;4.88;;
66179;SDS011;52986;44.028;20.466;2023-07-08T01:28:12;10.57;;;4.45;;
66179;SDS011;52986;44.028;20.466;2023-07-08T01:30:38;11.63;;;4.25;;
66179;SDS011;52986;44.028;20.466;2023-07-08T01:33:12;10.23;;;3.95;;
66179;SDS011;52986;44.028;20.466;2023-07-08T01:35:42;12.25;;;4.50;;
66179;SDS011;52986;44.028;20.466;2023-07-08T01:38:08;10.40;;;4.28;;
66179;SDS011;52986;44.028;20.466;2023-07-08T01:40:37;11.27;;;4.93;;
66179;SDS011;52986;44.028;20.466;2023-07-08T01:43:12;10.38;;;4.53;;
66179;SDS011;52986;44.028;20.466;2023-07-08T01:45:38;9.53;;;4.20;;
66179;SDS011;52986;44.028;20.466;2023-07-08T01:48:11;10.93;;;4.30;;
66179;SDS011;52986;44.028;20.466;2023-07-08T01:50:40;12.60;;;4.53;;
66179;SDS011;52986;44.028;20.466;2023-07-08T01:53:12;10.65;;;4.40;;
66179;SDS011;52986;44.028;20.466;2023-07-08T01:55:40;10.40;;;4.20;;
66179;SDS011;52986;44.028;20.466;2023-07-08T01:58:06;10.32;;;4.25;;
66179;SDS011;52986;44.028;20.466;2023-07-08T02:00:31;12.07;;;4.35;;
66179;SDS011;52986;44.028;20.466;2023-07-08T02:02:56;10.70;;;4.20;;
66179;SDS011;52986;44.028;20.466;2023-07-08T02:05:22;11.75;;;4.28;;
66179;SDS011;52986;44.028;20.466;2023-07-08T02:07:48;11.18;;;4.78;;
66179;SDS011;52986;44.028;20.466;2023-07-08T02:10:14;11.77;;;4.47;;
66179;SDS011;52986;44.028;20.466;2023-07-08T02:12:39;11.85;;;4.22;;
66179;SDS011;52986;44.028;20.466;2023-07-08T02:15:05;10.10;;;4.05;;
66179;SDS011;52986;44.028;20.466;2023-07-08T02:17:31;10.45;;;4.35;;
66179;SDS011;52986;44.028;20.466;2023-07-08T02:19:56;11.35;;;4.22;;
66179;SDS011;52986;44.028;20.466;2023-07-08T02:22:22;11.75;;;4.35;;
66179;SDS011;52986;44.028;20.466;2023-07-08T02:24:48;10.88;;;4.47;;
66179;SDS011;52986;44.028;20.466;2023-07-08T02:27:13;10.88;;;4.22;;
66179;SDS011;52986;44.028;20.466;2023-07-08T02:29:39;11.82;;;4.20;;
66179;SDS011;52986;44.028;20.466;2023-07-08T02:32:05;9.52;;;4.05;;
66179;SDS011;52986;44.028;20.466;2023-07-08T02:34:31;11.52;;;4.53;;
66179;SDS011;52986;44.028;20.466;2023-07-08T02:36:57;10.98;;;4.18;;
66179;SDS011;52986;44.028;20.466;2023-07-08T02:39:22;11.57;;;4.18;;
66179;SDS011;52986;44.028;20.466;2023-07-08T02:41:48;10.60;;;3.95;;
66179;SDS011;52986;44.028;20.466;2023-07-08T02:44:14;12.13;;;4.50;;
66179;SDS011;52986;44.028;20.466;2023-07-08T02:46:39;11.75;;;4.40;;
66179;SDS011;52986;44.028;20.466;2023-07-08T02:49:05;12.63;;;4.30;;
66179;SDS011;52986;44.028;20.466;2023-07-08T02:51:31;14.65;;;4.35;;
66179;SDS011;52986;44.028;20.466;2023-07-08T02:53:56;11.75;;;4.57;;
66179;SDS011;52986;44.028;20.466;2023-07-08T02:56:22;9.25;;;4.03;;
66179;SDS011;52986;44.028;20.466;2023-07-08T02:58:48;9.30;;;4.00;;
66179;SDS011;52986;44.028;20.466;2023-07-08T03:01:13;13.02;;;4.22;;
66179;SDS011;52986;44.028;20.466;2023-07-08T03:03:42;11.98;;;4.65;;
66179;SDS011;52986;44.028;20.466;2023-07-08T03:06:11;10.27;;;4.43;;
66179;SDS011;52986;44.028;20.466;2023-07-08T03:08:37;11.57;;;4.35;;
66179;SDS011;52986;44.028;20.466;2023-07-08T03:11:03;16.48;;;5.40;;
66179;SDS011;52986;44.028;20.466;2023-07-08T03:13:30;12.10;;;4.18;;
66179;SDS011;52986;44.028;20.466;2023-07-08T03:15:57;12.68;;;4.20;;
66179;SDS011;52986;44.028;20.466;2023-07-08T03:18:24;13.25;;;4.85;;
66179;SDS011;52986;44.028;20.466;2023-07-08T03:20:51;12.88;;;4.82;;
66179;SDS011;52986;44.028;20.466;2023-07-08T03:23:18;15.38;;;4.63;;
66179;SDS011;52986;44.028;20.466;2023-07-08T03:25:44;11.23;;;4.57;;
66179;SDS011;52986;44.028;20.466;2023-07-08T03:28:10;13.35;;;4.82;;
66179;SDS011;52986;44.028;20.466;2023-07-08T03:30:40;12.15;;;5.22;;
66179;SDS011;52986;44.028;20.466;2023-07-08T03:33:06;11.75;;;4.47;;
66179;SDS011;52986;44.028;20.466;2023-07-08T03:35:32;11.50;;;5.05;;
66179;SDS011;52986;44.028;20.466;2023-07-08T03:37:57;12.63;;;5.95;;
66179;SDS011;52986;44.028;20.466;2023-07-08T03:40:22;14.38;;;5.68;;
66179;SDS011;52986;44.028;20.466;2023-07-08T03:42:48;22.02;;;6.13;;
66179;SDS011;52986;44.028;20.466;2023-07-08T03:45:13;13.90;;;5.20;;
66179;SDS011;52986;44.028;20.466;2023-07-08T03:47:39;12.55;;;4.93;;
66179;SDS011;52986;44.028;20.466;2023-07-08T03:50:05;20.35;;;4.70;;
66179;SDS011;52986;44.028;20.466;2023-07-08T03:52:31;12.38;;;4.32;;
66179;SDS011;52986;44.028;20.466;2023-07-08T03:54:56;11.35;;;4.45;;
66179;SDS011;52986;44.028;20.466;2023-07-08T03:57:22;12.07;;;5.05;;
66179;SDS011;52986;44.028;20.466;2023-07-08T03:59:47;14.85;;;5.35;;
66179;SDS011;52986;44.028;20.466;2023-07-08T04:02:12;15.90;;;5.85;;
66179;SDS011;52986;44.028;20.466;2023-07-08T04:04:38;13.63;;;5.70;;
66179;SDS011;52986;44.028;20.466;2023-07-08T04:07:07;17.15;;;5.20;;
66179;SDS011;52986;44.028;20.466;2023-07-08T04:09:32;13.50;;;4.68;;
66179;SDS011;52986;44.028;20.466;2023-07-08T04:11:57;12.20;;;5.35;;
66179;SDS011;52986;44.028;20.466;2023-07-08T04:14:24;12.27;;;5.50;;
66179;SDS011;52986;44.028;20.466;2023-07-08T04:16:54;17.23;;;5.40;;
66179;SDS011;52986;44.028;20.466;2023-07-08T04:19:22;12.30;;;4.95;;
66179;SDS011;52986;44.028;20.466;2023-07-08T04:21:48;13.50;;;5.10;;
66179;SDS011;52986;44.028;20.466;2023-07-08T04:24:14;14.75;;;4.88;;
66179;SDS011;52986;44.028;20.466;2023-07-08T04:26:41;12.85;;;4.90;;
66179;SDS011;52986;44.028;20.466;2023-07-08T04:29:15;12.68;;;4.68;;
66179;SDS011;52986;44.028;20.466;2023-07-08T04:31:42;13.00;;;4.82;;
66179;SDS011;52986;44.028;20.466;2023-07-08T04:34:08;11.13;;;4.43;;
66179;SDS011;52986;44.028;20.466;2023-07-08T04:36:36;11.60;;;4.55;;
66179;SDS011;52986;44.028;20.466;2023-07-08T04:39:05;10.95;;;4.72;;
66179;SDS011;52986;44.028;20.466;2023-07-08T04:41:31;10.45;;;4.15;;
66179;SDS011;52986;44.028;20.466;2023-07-08T04:43:57;10.60;;;4.47;;
66179;SDS011;52986;44.028;20.466;2023-07-08T04:49:05;12.63;;;4.82;;
66179;SDS011;52986;44.028;20.466;2023-07-08T04:51:32;12.85;;;5.07;;
66179;SDS011;52986;44.028;20.466;2023-07-08T04:53:58;11.18;;;4.60;;
66179;SDS011;52986;44.028;20.466;2023-07-08T04:56:25;11.77;;;4.72;;
66179;SDS011;52986;44.028;20.466;2023-07-08T04:58:51;11.55;;;4.57;;
66179;SDS011;52986;44.028;20.466;2023-07-08T05:01:16;13.52;;;5.22;;
66179;SDS011;52986;44.028;20.466;2023-07-08T05:03:42;12.00;;;5.00;;
66179;SDS011;52986;44.028;20.466;2023-07-08T05:06:07;11.73;;;5.03;;
66179;SDS011;52986;44.028;20.466;2023-07-08T05:08:32;13.32;;;5.47;;
66179;SDS011;52986;44.028;20.466;2023-07-08T05:10:58;14.18;;;4.85;;
66179;SDS011;52986;44.028;20.466;2023-07-08T05:13:24;11.95;;;5.03;;
66179;SDS011;52986;44.028;20.466;2023-07-08T05:15:49;10.57;;;4.78;;
66179;SDS011;52986;44.028;20.466;2023-07-08T05:18:15;15.55;;;5.15;;
66179;SDS011;52986;44.028;20.466;2023-07-08T05:20:40;12.15;;;4.72;;
66179;SDS011;52986;44.028;20.466;2023-07-08T05:23:06;11.77;;;4.68;;
66179;SDS011;52986;44.028;20.466;2023-07-08T05:25:32;10.73;;;4.55;;
66179;SDS011;52986;44.028;20.466;2023-07-08T05:27:58;10.65;;;5.05;;
66179;SDS011;52986;44.028;20.466;2023-07-08T05:30:23;10.48;;;4.80;;
66179;SDS011;52986;44.028;20.466;2023-07-08T05:32:48;21.60;;;5.18;;
66179;SDS011;52986;44.028;20.466;2023-07-08T05:35:14;13.43;;;4.90;;
66179;SDS011;52986;44.028;20.466;2023-07-08T05:37:40;12.63;;;5.68;;
66179;SDS011;52986;44.028;20.466;2023-07-08T05:40:06;10.75;;;4.72;;
66179;SDS011;52986;44.028;20.466;2023-07-08T05:42:35;11.38;;;4.80;;
66179;SDS011;52986;44.028;20.466;2023-07-08T05:45:00;10.82;;;4.63;;
66179;SDS011;52986;44.028;20.466;2023-07-08T05:47:26;10.98;;;4.93;;
66179;SDS011;52986;44.028;20.466;2023-07-08T05:49:51;10.18;;;4.40;;
66179;SDS011;52986;44.028;20.466;2023-07-08T05:52:16;11.35;;;4.72;;
66179;SDS011;52986;44.028;20.466;2023-07-08T05:54:42;10.60;;;4.15;;
66179;SDS011;52986;44.028;20.466;2023-07-08T05:57:08;14.20;;;4.60;;
66179;SDS011;52986;44.028;20.466;2023-07-08T05:59:35;11.43;;;4.53;;
66179;SDS011;52986;44.028;20.466;2023-07-08T06:02:05;9.98;;;4.72;;
66179;SDS011;52986;44.028;20.466;2023-07-08T06:04:32;9.38;;;4.15;;
66179;SDS011;52986;44.028;20.466;2023-07-08T06:06:57;11.27;;;4.03;;
66179;SDS011;52986;44.028;20.466;2023-07-08T06:09:23;11.77;;;4.05;;
66179;SDS011;52986;44.028;20.466;2023-07-08T06:11:48;11.30;;;4.00;;
66179;SDS011;52986;44.028;20.466;2023-07-08T06:14:14;10.57;;;3.92;;
66179;SDS011;52986;44.028;20.466;2023-07-08T06:16:39;8.68;;;4.00;;
66179;SDS011;52986;44.028;20.466;2023-07-08T06:19:04;11.18;;;4.30;;
66179;SDS011;52986;44.028;20.466;2023-07-08T06:21:30;8.68;;;3.72;;
66179;SDS011;52986;44.028;20.466;2023-07-08T06:23:56;11.13;;;4.00;;
66179;SDS011;52986;44.028;20.466;2023-07-08T06:26:21;9.70;;;3.80;;
66179;SDS011;52986;44.028;20.466;2023-07-08T06:28:47;11.38;;;4.28;;
66179;SDS011;52986;44.028;20.466;2023-07-08T06:31:12;9.05;;;3.75;;
66179;SDS011;52986;44.028;20.466;2023-07-08T06:33:37;10.20;;;4.05;;
66179;SDS011;52986;44.028;20.466;2023-07-08T06:36:03;10.63;;;3.93;;
66179;SDS011;52986;44.028;20.466;2023-07-08T06:38:29;9.95;;;4.00;;
66179;SDS011;52986;44.028;20.466;2023-07-08T06:40:54;10.60;;;3.95;;
66179;SDS011;52986;44.028;20.466;2023-07-08T06:43:20;12.40;;;4.40;;
66179;SDS011;52986;44.028;20.466;2023-07-08T06:45:45;10.32;;;4.63;;
66179;SDS011;52986;44.028;20.466;2023-07-08T06:48:10;8.85;;;4.03;;
66179;SDS011;52986;44.028;20.466;2023-07-08T06:50:37;10.57;;;4.37;;
66179;SDS011;52986;44.028;20.466;2023-07-08T06:53:03;10.43;;;4.00;;
66179;SDS011;52986;44.028;20.466;2023-07-08T06:55:28;11.25;;;3.75;;
66179;SDS011;52986;44.028;20.466;2023-07-08T06:57:55;17.77;;;4.47;;
66179;SDS011;52986;44.028;20.466;2023-07-08T07:00:20;14.63;;;4.50;;
66179;SDS011;52986;44.028;20.466;2023-07-08T07:02:46;11.88;;;3.75;;
66179;SDS011;52986;44.028;20.466;2023-07-08T07:05:11;9.63;;;3.78;;
66179;SDS011;52986;44.028;20.466;2023-07-08T07:07:37;10.70;;;3.80;;
66179;SDS011;52986;44.028;20.466;2023-07-08T07:10:02;11.13;;;4.07;;
66179;SDS011;52986;44.028;20.466;2023-07-08T07:12:28;12.18;;;3.92;;
66179;SDS011;52986;44.028;20.466;2023-07-08T07:14:54;8.95;;;3.63;;
66179;SDS011;52986;44.028;20.466;2023-07-08T07:17:22;11.23;;;3.72;;
66179;SDS011;52986;44.028;20.466;2023-07-08T07:19:49;9.05;;;3.83;;
66179;SDS011;52986;44.028;20.466;2023-07-08T07:22:15;10.70;;;4.07;;
66179;SDS011;52986;44.028;20.466;2023-07-08T07:24:40;9.57;;;3.92;;
66179;SDS011;52986;44.028;20.466;2023-07-08T07:27:06;9.70;;;3.60;;
66179;SDS011;52986;44.028;20.466;2023-07-08T07:29:45;14.05;;;3.95;;
66179;SDS011;52986;44.028;20.466;2023-07-08T07:32:13;11.55;;;3.83;;
66179;SDS011;52986;44.028;20.466;2023-07-08T07:34:39;10.43;;;4.38;;
66179;SDS011;52986;44.028;20.466;2023-07-08T07:37:06;9.70;;;3.80;;
66179;SDS011;52986;44.028;20.466;2023-07-08T07:39:35;9.38;;;3.70;;
66179;SDS011;52986;44.028;20.466;2023-07-08T07:42:00;9.38;;;3.63;;
66179;SDS011;52986;44.028;20.466;2023-07-08T07:44:26;9.32;;;3.80;;
66179;SDS011;52986;44.028;20.466;2023-07-08T07:46:52;10.13;;;3.58;;
66179;SDS011;52986;44.028;20.466;2023-07-08T07:49:19;8.90;;;3.67;;
66179;SDS011;52986;44.028;20.466;2023-07-08T07:51:44;9.20;;;3.55;;
66179;SDS011;52986;44.028;20.466;2023-07-08T07:54:10;12.02;;;3.92;;
66179;SDS011;52986;44.028;20.466;2023-07-08T07:56:35;12.45;;;3.90;;
66179;SDS011;52986;44.028;20.466;2023-07-08T07:59:01;8.77;;;3.50;;
66179;SDS011;52986;44.028;20.466;2023-07-08T08:01:27;14.93;;;3.63;;
66179;SDS011;52986;44.028;20.466;2023-07-08T08:03:52;11.40;;;3.70;;
66179;SDS011;52986;44.028;20.466;2023-07-08T08:06:18;9.63;;;3.50;;
66179;SDS011;52986;44.028;20.466;2023-07-08T08:08:46;12.82;;;3.53;;
66179;SDS011;52986;44.028;20.466;2023-07-08T08:11:12;18.23;;;3.92;;
66179;SDS011;52986;44.028;20.466;2023-07-08T08:13:38;9.27;;;4.32;;
66179;SDS011;52986;44.028;20.466;2023-07-08T08:16:03;8.85;;;3.50;;
66179;SDS011;52986;44.028;20.466;2023-07-08T08:18:29;8.07;;;3.60;;
66179;SDS011;52986;44.028;20.466;2023-07-08T08:20:55;10.00;;;3.75;;
66179;SDS011;52986;44.028;20.466;2023-07-08T08:23:20;9.10;;;3.67;;
66179;SDS011;52986;44.028;20.466;2023-07-08T08:25:45;8.80;;;3.47;;
66179;SDS011;52986;44.028;20.466;2023-07-08T08:28:11;8.50;;;3.40;;
66179;SDS011;52986;44.028;20.466;2023-07-08T08:30:36;9.38;;;3.30;;
66179;SDS011;52986;44.028;20.466;2023-07-08T08:33:02;10.27;;;3.33;;
66179;SDS011;52986;44.028;20.466;2023-07-08T08:35:27;11.35;;;3.80;;
66179;SDS011;52986;44.028;20.466;2023-07-08T08:37:53;14.95;;;3.60;;
66179;SDS011;52986;44.028;20.466;2023-07-08T08:40:19;11.88;;;3.42;;
66179;SDS011;52986;44.028;20.466;2023-07-08T08:42:59;8.75;;;3.28;;
66179;SDS011;52986;44.028;20.466;2023-07-08T08:45:29;8.65;;;3.17;;
66179;SDS011;52986;44.028;20.466;2023-07-08T08:48:02;8.85;;;3.30;;
66179;SDS011;52986;44.028;20.466;2023-07-08T08:52:56;10.35;;;3.55;;
66179;SDS011;52986;44.028;20.466;2023-07-08T08:55:23;8.63;;;3.60;;
66179;SDS011;52986;44.028;20.466;2023-07-08T08:58:05;8.82;;;3.42;;
66179;SDS011;52986;44.028;20.466;2023-07-08T09:00:41;17.88;;;3.60;;
66179;SDS011;52986;44.028;20.466;2023-07-08T09:03:13;8.55;;;3.65;;
66179;SDS011;52986;44.028;20.466;2023-07-08T09:05:45;8.95;;;3.47;;
66179;SDS011;52986;44.028;20.466;2023-07-08T09:10:55;10.02;;;3.90;;
66179;SDS011;52986;44.028;20.466;2023-07-08T09:13:30;10.95;;;3.60;;
66179;SDS011;52986;44.028;20.466;2023-07-08T09:15:59;9.65;;;3.88;;
66179;SDS011;52986;44.028;20.466;2023-07-08T09:18:36;12.82;;;3.63;;
66179;SDS011;52986;44.028;20.466;2023-07-08T09:21:16;10.00;;;3.80;;
66179;SDS011;52986;44.028;20.466;2023-07-08T09:23:50;8.73;;;3.55;;
66179;SDS011;52986;44.028;20.466;2023-07-08T09:26:18;14.32;;;3.80;;
66179;SDS011;52986;44.028;20.466;2023-07-08T09:28:47;8.57;;;3.70;;
66179;SDS011;52986;44.028;20.466;2023-07-08T09:34:04;9.85;;;3.63;;
66179;SDS011;52986;44.028;20.466;2023-07-08T09:36:33;8.80;;;3.85;;
66179;SDS011;52986;44.028;20.466;2023-07-08T09:38:58;7.22;;;3.13;;
66179;SDS011;52986;44.028;20.466;2023-07-08T09:41:30;8.70;;;3.08;;
66179;SDS011;52986;44.028;20.466;2023-07-08T09:46:41;7.93;;;3.15;;
66179;SDS011;52986;44.028;20.466;2023-07-08T09:51:42;10.23;;;3.38;;
66179;SDS011;52986;44.028;20.466;2023-07-08T09:54:07;12.35;;;3.70;;
66179;SDS011;52986;44.028;20.466;2023-07-08T09:56:33;8.77;;;3.70;;
66179;SDS011;52986;44.028;20.466;2023-07-08T09:58:59;9.77;;;3.40;;
66179;SDS011;52986;44.028;20.466;2023-07-08T10:01:25;11.48;;;3.40;;
66179;SDS011;52986;44.028;20.466;2023-07-08T10:03:57;7.63;;;3.13;;
66179;SDS011;52986;44.028;20.466;2023-07-08T10:06:27;9.38;;;3.53;;
66179;SDS011;52986;44.028;20.466;2023-07-08T10:08:55;8.38;;;3.40;;
66179;SDS011;52986;44.028;20.466;2023-07-08T10:11:26;7.68;;;3.08;;
66179;SDS011;52986;44.028;20.466;2023-07-08T10:13:54;7.30;;;3.17;;
66179;SDS011;52986;44.028;20.466;2023-07-08T10:16:44;8.75;;;3.30;;
66179;SDS011;52986;44.028;20.466;2023-07-08T10:19:15;7.93;;;3.40;;
66179;SDS011;52986;44.028;20.466;2023-07-08T10:24:55;8.77;;;3.22;;
66179;SDS011;52986;44.028;20.466;2023-07-08T10:27:35;8.85;;;3.15;;
66179;SDS011;52986;44.028;20.466;2023-07-08T10:32:41;8.30;;;3.20;;
66179;SDS011;52986;44.028;20.466;2023-07-08T10:35:20;9.15;;;3.30;;
66179;SDS011;52986;44.028;20.466;2023-07-08T10:38:13;9.15;;;3.13;;
66179;SDS011;52986;44.028;20.466;2023-07-08T10:40:48;6.93;;;3.13;;
66179;SDS011;52986;44.028;20.466;2023-07-08T10:43:37;7.82;;;3.00;;
66179;SDS011;52986;44.028;20.466;2023-07-08T11:00:02;10.68;;;3.15;;
66179;SDS011;52986;44.028;20.466;2023-07-08T11:09:12;8.48;;;3.03;;
66179;SDS011;52986;44.028;20.466;2023-07-08T11:15:18;7.30;;;2.95;;
66179;SDS011;52986;44.028;20.466;2023-07-08T11:20:40;8.88;;;3.17;;
66179;SDS011;52986;44.028;20.466;2023-07-08T11:25:52;7.95;;;3.10;;
66179;SDS011;52986;44.028;20.466;2023-07-08T11:28:30;11.02;;;3.13;;
66179;SDS011;52986;44.028;20.466;2023-07-08T11:30:55;6.70;;;2.87;;
66179;SDS011;52986;44.028;20.466;2023-07-08T11:33:24;7.05;;;2.83;;
66179;SDS011;52986;44.028;20.466;2023-07-08T11:35:51;8.45;;;3.13;;
66179;SDS011;52986;44.028;20.466;2023-07-08T11:38:27;11.32;;;3.10;;
66179;SDS011;52986;44.028;20.466;2023-07-08T11:43:21;12.10;;;3.30;;
66179;SDS011;52986;44.028;20.466;2023-07-08T11:45:50;16.58;;;3.30;;
66179;SDS011;52986;44.028;20.466;2023-07-08T11:48:23;9.27;;;3.40;;
66179;SDS011;52986;44.028;20.466;2023-07-08T11:50:53;10.68;;;3.40;;
66179;SDS011;52986;44.028;20.466;2023-07-08T11:58:50;12.98;;;3.40;;
66179;SDS011;52986;44.028;20.466;2023-07-08T12:08:58;8.80;;;3.40;;
66179;SDS011;52986;44.028;20.466;2023-07-08T12:11:26;7.90;;;3.50;;
66179;SDS011;52986;44.028;20.466;2023-07-08T12:14:04;8.20;;;3.30;;
66179;SDS011;52986;44.028;20.466;2023-07-08T12:16:31;9.63;;;3.15;;
66179;SDS011;52986;44.028;20.466;2023-07-08T12:18:57;9.18;;;2.97;;
66179;SDS011;52986;44.028;20.466;2023-07-08T12:21:25;7.80;;;2.90;;
66179;SDS011;52986;44.028;20.466;2023-07-08T12:23:52;10.35;;;3.47;;
66179;SDS011;52986;44.028;20.466;2023-07-08T12:26:18;8.38;;;3.53;;
66179;SDS011;52986;44.028;20.466;2023-07-08T12:28:43;6.78;;;2.92;;
66179;SDS011;52986;44.028;20.466;2023-07-08T12:31:17;8.15;;;3.20;;
66179;SDS011;52986;44.028;20.466;2023-07-08T12:33:44;11.52;;;3.33;;
66179;SDS011;52986;44.028;20.466;2023-07-08T12:36:14;9.10;;;3.30;;
66179;SDS011;52986;44.028;20.466;2023-07-08T12:38:44;9.00;;;3.70;;
66179;SDS011;52986;44.028;20.466;2023-07-08T12:41:12;10.32;;;3.97;;
66179;SDS011;52986;44.028;20.466;2023-07-08T12:43:46;9.32;;;4.10;;
66179;SDS011;52986;44.028;20.466;2023-07-08T12:46:12;9.60;;;3.38;;
66179;SDS011;52986;44.028;20.466;2023-07-08T12:48:40;9.55;;;3.28;;
66179;SDS011;52986;44.028;20.466;2023-07-08T12:51:06;7.43;;;3.25;;
66179;SDS011;52986;44.028;20.466;2023-07-08T12:56:01;8.67;;;3.80;;
66179;SDS011;52986;44.028;20.466;2023-07-08T12:58:29;9.63;;;3.83;;
66179;SDS011;52986;44.028;20.466;2023-07-08T13:00:57;8.55;;;3.70;;
66179;SDS011;52986;44.028;20.466;2023-07-08T13:03:26;9.32;;;3.50;;
66179;SDS011;52986;44.028;20.466;2023-07-08T13:05:54;8.48;;;3.65;;
66179;SDS011;52986;44.028;20.466;2023-07-08T13:08:22;9.48;;;3.63;;
66179;SDS011;52986;44.028;20.466;2023-07-08T13:10:51;9.45;;;3.85;;
66179;SDS011;52986;44.028;20.466;2023-07-08T13:13:20;8.65;;;3.80;;
66179;SDS011;52986;44.028;20.466;2023-07-08T13:15:48;9.65;;;3.67;;
66179;SDS011;52986;44.028;20.466;2023-07-08T13:21:02;9.48;;;3.80;;
66179;SDS011;52986;44.028;20.466;2023-07-08T13:23:29;10.60;;;3.58;;
66179;SDS011;52986;44.028;20.466;2023-07-08T13:25:56;9.50;;;3.50;;
66179;SDS011;52986;44.028;20.466;2023-07-08T13:28:37;11.02;;;3.70;;
66179;SDS011;52986;44.028;20.466;2023-07-08T13:31:13;8.38;;;3.83;;
66179;SDS011;52986;44.028;20.466;2023-07-08T13:33:50;10.02;;;4.15;;
66179;SDS011;52986;44.028;20.466;2023-07-08T13:36:19;18.60;;;4.43;;
66179;SDS011;52986;44.028;20.466;2023-07-08T13:38:48;10.13;;;3.75;;
66179;SDS011;52986;44.028;20.466;2023-07-08T13:41:19;9.55;;;4.00;;
66179;SDS011;52986;44.028;20.466;2023-07-08T13:43:48;8.35;;;4.20;;
66179;SDS011;52986;44.028;20.466;2023-07-08T13:49:26;8.70;;;3.95;;
66179;SDS011;52986;44.028;20.466;2023-07-08T13:52:08;8.25;;;4.03;;
66179;SDS011;52986;44.028;20.466;2023-07-08T13:55:08;8.60;;;4.07;;
66179;SDS011;52986;44.028;20.466;2023-07-08T13:57:37;10.98;;;4.10;;
66179;SDS011;52986;44.028;20.466;2023-07-08T14:00:05;9.80;;;4.60;;
66179;SDS011;52986;44.028;20.466;2023-07-08T14:02:32;10.73;;;4.63;;
66179;SDS011;52986;44.028;20.466;2023-07-08T14:04:59;10.50;;;4.45;;
66179;SDS011;52986;44.028;20.466;2023-07-08T14:07:27;9.88;;;4.45;;
66179;SDS011;52986;44.028;20.466;2023-07-08T14:09:54;7.88;;;3.72;;
66179;SDS011;52986;44.028;20.466;2023-07-08T14:12:20;8.20;;;3.63;;
66179;SDS011;52986;44.028;20.466;2023-07-08T14:14:46;10.00;;;4.03;;
66179;SDS011;52986;44.028;20.466;2023-07-08T14:17:20;10.95;;;4.40;;
66179;SDS011;52986;44.028;20.466;2023-07-08T14:19:48;10.45;;;4.60;;
66179;SDS011;52986;44.028;20.466;2023-07-08T14:24:39;8.40;;;4.47;;
66179;SDS011;52986;44.028;20.466;2023-07-08T14:27:09;11.00;;;5.20;;
66179;SDS011;52986;44.028;20.466;2023-07-08T14:29:37;10.43;;;4.82;;
66179;SDS011;52986;44.028;20.466;2023-07-08T14:32:03;9.63;;;4.68;;
66179;SDS011;52986;44.028;20.466;2023-07-08T14:34:29;12.10;;;4.68;;
66179;SDS011;52986;44.028;20.466;2023-07-08T14:36:55;10.13;;;4.50;;
66179;SDS011;52986;44.028;20.466;2023-07-08T14:39:20;9.80;;;4.82;;
66179;SDS011;52986;44.028;20.466;2023-07-08T14:41:47;10.20;;;4.65;;
66179;SDS011;52986;44.028;20.466;2023-07-08T14:44:24;8.75;;;4.35;;
66179;SDS011;52986;44.028;20.466;2023-07-08T14:46:55;14.25;;;4.90;;
66179;SDS011;52986;44.028;20.466;2023-07-08T14:49:22;9.73;;;4.35;;
66179;SDS011;52986;44.028;20.466;2023-07-08T14:51:48;10.32;;;4.75;;
66179;SDS011;52986;44.028;20.466;2023-07-08T14:54:14;8.50;;;4.40;;
66179;SDS011;52986;44.028;20.466;2023-07-08T14:56:40;10.77;;;4.90;;
66179;SDS011;52986;44.028;20.466;2023-07-08T14:59:06;10.40;;;4.45;;
66179;SDS011;52986;44.028;20.466;2023-07-08T15:01:38;10.13;;;4.95;;
66179;SDS011;52986;44.028;20.466;2023-07-08T15:04:08;10.88;;;4.90;;
66179;SDS011;52986;44.028;20.466;2023-07-08T15:06:36;10.57;;;5.15;;
66179;SDS011;52986;44.028;20.466;2023-07-08T15:09:01;8.95;;;5.22;;
66179;SDS011;52986;44.028;20.466;2023-07-08T15:11:27;10.40;;;4.80;;
66179;SDS011;52986;44.028;20.466;2023-07-08T15:13:52;11.50;;;5.57;;
66179;SDS011;52986;44.028;20.466;2023-07-08T15:16:17;9.20;;;4.90;;
66179;SDS011;52986;44.028;20.466;2023-07-08T15:18:44;10.30;;;5.28;;
66179;SDS011;52986;44.028;20.466;2023-07-08T15:21:13;10.63;;;4.80;;
66179;SDS011;52986;44.028;20.466;2023-07-08T15:23:40;11.10;;;5.72;;
66179;SDS011;52986;44.028;20.466;2023-07-08T15:26:08;10.02;;;5.13;;
66179;SDS011;52986;44.028;20.466;2023-07-08T15:28:39;10.10;;;4.85;;
66179;SDS011;52986;44.028;20.466;2023-07-08T15:31:14;10.18;;;5.07;;
66179;SDS011;52986;44.028;20.466;2023-07-08T15:33:50;11.15;;;5.03;;
66179;SDS011;52986;44.028;20.466;2023-07-08T15:36:16;11.50;;;5.57;;
66179;SDS011;52986;44.028;20.466;2023-07-08T15:38:41;11.52;;;5.20;;
66179;SDS011;52986;44.028;20.466;2023-07-08T15:41:10;9.32;;;4.88;;
66179;SDS011;52986;44.028;20.466;2023-07-08T15:43:58;13.98;;;5.38;;
66179;SDS011;52986;44.028;20.466;2023-07-08T15:46:43;10.32;;;5.53;;
66179;SDS011;52986;44.028;20.466;2023-07-08T15:49:18;20.17;;;5.80;;
66179;SDS011;52986;44.028;20.466;2023-07-08T15:51:52;11.07;;;5.18;;